sensor_id;sensor_type;location;lat;lon;timestamp;temperature;humidity
69589;SHT31;56792;50.644;17.984;2024-01-27T00:00:34;5.41;76.20
69589;SHT31;56792;50.644;17.984;2024-01-27T00:03:06;5.38;76.39
69589;SHT31;56792;50.644;17.984;2024-01-27T00:05:37;5.34;76.61
69589;SHT31;56792;50.644;17.984;2024-01-27T00:08:08;5.31;76.66
69589;SHT31;56792;50.644;17.984;2024-01-27T00:10:39;5.32;76.14
69589;SHT31;56792;50.644;17.984;2024-01-27T00:13:12;5.34;75.68
69589;SHT31;56792;50.644;17.984;2024-01-27T00:15:43;5.33;75.75
69589;SHT31;56792;50.644;17.984;2024-01-27T00:18:15;5.32;75.29
69589;SHT31;56792;50.644;17.984;2024-01-27T00:20:46;5.33;75.39
69589;SHT31;56792;50.644;17.984;2024-01-27T00:23:17;5.31;75.30
69589;SHT31;56792;50.644;17.984;2024-01-27T00:25:48;5.33;74.92
69589;SHT31;56792;50.644;17.984;2024-01-27T00:28:19;5.35;74.93
69589;SHT31;56792;50.644;17.984;2024-01-27T00:30:50;5.33;75.08
69589;SHT31;56792;50.644;17.984;2024-01-27T00:33:22;5.31;75.05
69589;SHT31;56792;50.644;17.984;2024-01-27T00:35:53;5.30;75.21
69589;SHT31;56792;50.644;17.984;2024-01-27T00:38:24;5.28;75.20
69589;SHT31;56792;50.644;17.984;2024-01-27T00:40:55;5.27;75.20
69589;SHT31;56792;50.644;17.984;2024-01-27T00:43:26;5.22;75.51
69589;SHT31;56792;50.644;17.984;2024-01-27T00:45:57;5.17;75.66
69589;SHT31;56792;50.644;17.984;2024-01-27T00:48:28;5.14;75.74
69589;SHT31;56792;50.644;17.984;2024-01-27T00:50:59;5.12;75.93
69589;SHT31;56792;50.644;17.984;2024-01-27T00:53:31;5.09;76.01
69589;SHT31;56792;50.644;17.984;2024-01-27T00:56:02;5.04;76.02
69589;SHT31;56792;50.644;17.984;2024-01-27T00:58:34;5.02;75.90
69589;SHT31;56792;50.644;17.984;2024-01-27T01:01:05;5.05;75.63
69589;SHT31;56792;50.644;17.984;2024-01-27T01:03:36;5.06;75.65
69589;SHT31;56792;50.644;17.984;2024-01-27T01:06:07;5.07;75.73
69589;SHT31;56792;50.644;17.984;2024-01-27T01:08:38;5.07;75.71
69589;SHT31;56792;50.644;17.984;2024-01-27T01:11:09;5.07;75.83
69589;SHT31;56792;50.644;17.984;2024-01-27T01:13:41;5.07;75.94
69589;SHT31;56792;50.644;17.984;2024-01-27T01:16:12;5.09;76.13
69589;SHT31;56792;50.644;17.984;2024-01-27T01:18:43;5.06;76.44
69589;SHT31;56792;50.644;17.984;2024-01-27T01:21:14;5.08;76.60
69589;SHT31;56792;50.644;17.984;2024-01-27T01:23:45;5.07;76.69
69589;SHT31;56792;50.644;17.984;2024-01-27T01:26:16;5.07;76.75
69589;SHT31;56792;50.644;17.984;2024-01-27T01:28:48;5.11;76.12
69589;SHT31;56792;50.644;17.984;2024-01-27T01:31:19;5.14;76.13
69589;SHT31;56792;50.644;17.984;2024-01-27T01:33:50;5.11;76.20
69589;SHT31;56792;50.644;17.984;2024-01-27T01:36:21;5.10;76.21
69589;SHT31;56792;50.644;17.984;2024-01-27T01:38:52;5.09;75.83
69589;SHT31;56792;50.644;17.984;2024-01-27T01:41:23;5.06;75.99
69589;SHT31;56792;50.644;17.984;2024-01-27T01:43:54;5.04;75.83
69589;SHT31;56792;50.644;17.984;2024-01-27T01:46:25;4.99;75.68
69589;SHT31;56792;50.644;17.984;2024-01-27T01:48:57;4.99;75.34
69589;SHT31;56792;50.644;17.984;2024-01-27T01:51:28;4.98;74.80
69589;SHT31;56792;50.644;17.984;2024-01-27T01:53:59;5.01;74.66
69589;SHT31;56792;50.644;17.984;2024-01-27T01:56:31;4.95;74.81
69589;SHT31;56792;50.644;17.984;2024-01-27T01:59:03;4.90;74.76
69589;SHT31;56792;50.644;17.984;2024-01-27T02:01:34;4.88;74.53
69589;SHT31;56792;50.644;17.984;2024-01-27T02:04:05;4.86;74.41
69589;SHT31;56792;50.644;17.984;2024-01-27T02:06:36;4.81;74.64
69589;SHT31;56792;50.644;17.984;2024-01-27T02:09:07;4.81;74.51
69589;SHT31;56792;50.644;17.984;2024-01-27T02:11:38;4.82;74.50
69589;SHT31;56792;50.644;17.984;2024-01-27T02:14:10;4.81;74.45
69589;SHT31;56792;50.644;17.984;2024-01-27T02:16:41;4.83;74.39
69589;SHT31;56792;50.644;17.984;2024-01-27T02:19:12;4.83;74.21
69589;SHT31;56792;50.644;17.984;2024-01-27T02:21:43;4.86;73.85
69589;SHT31;56792;50.644;17.984;2024-01-27T02:24:14;4.90;73.55
69589;SHT31;56792;50.644;17.984;2024-01-27T02:26:46;4.90;73.49
69589;SHT31;56792;50.644;17.984;2024-01-27T02:29:17;4.87;73.67
69589;SHT31;56792;50.644;17.984;2024-01-27T02:31:48;4.84;73.65
69589;SHT31;56792;50.644;17.984;2024-01-27T02:34:19;4.80;73.58
69589;SHT31;56792;50.644;17.984;2024-01-27T02:36:50;4.82;73.48
69589;SHT31;56792;50.644;17.984;2024-01-27T02:39:21;4.85;73.20
69589;SHT31;56792;50.644;17.984;2024-01-27T02:41:52;4.86;73.17
69589;SHT31;56792;50.644;17.984;2024-01-27T02:44:23;4.86;73.29
69589;SHT31;56792;50.644;17.984;2024-01-27T02:46:54;4.84;73.42
69589;SHT31;56792;50.644;17.984;2024-01-27T02:49:28;4.84;73.47
69589;SHT31;56792;50.644;17.984;2024-01-27T02:51:59;4.84;73.34
69589;SHT31;56792;50.644;17.984;2024-01-27T02:54:31;4.85;73.18
69589;SHT31;56792;50.644;17.984;2024-01-27T02:57:02;4.83;73.29
69589;SHT31;56792;50.644;17.984;2024-01-27T02:59:33;4.83;73.37
69589;SHT31;56792;50.644;17.984;2024-01-27T03:02:05;4.80;73.47
69589;SHT31;56792;50.644;17.984;2024-01-27T03:04:36;4.79;73.46
69589;SHT31;56792;50.644;17.984;2024-01-27T03:07:08;4.79;73.26
69589;SHT31;56792;50.644;17.984;2024-01-27T03:09:39;4.80;73.23
69589;SHT31;56792;50.644;17.984;2024-01-27T03:12:10;4.78;73.27
69589;SHT31;56792;50.644;17.984;2024-01-27T03:14:42;4.78;73.13
69589;SHT31;56792;50.644;17.984;2024-01-27T03:17:14;4.77;73.12
69589;SHT31;56792;50.644;17.984;2024-01-27T03:19:46;4.76;73.10
69589;SHT31;56792;50.644;17.984;2024-01-27T03:22:17;4.79;72.83
69589;SHT31;56792;50.644;17.984;2024-01-27T03:24:48;4.80;72.90
69589;SHT31;56792;50.644;17.984;2024-01-27T03:27:21;4.78;72.93
69589;SHT31;56792;50.644;17.984;2024-01-27T03:29:52;4.76;72.80
69589;SHT31;56792;50.644;17.984;2024-01-27T03:32:26;4.77;72.88
69589;SHT31;56792;50.644;17.984;2024-01-27T03:34:58;4.78;72.71
69589;SHT31;56792;50.644;17.984;2024-01-27T03:37:30;4.77;72.57
69589;SHT31;56792;50.644;17.984;2024-01-27T03:40:02;4.76;72.38
69589;SHT31;56792;50.644;17.984;2024-01-27T03:42:34;4.78;72.34
69589;SHT31;56792;50.644;17.984;2024-01-27T03:45:06;4.77;72.00
69589;SHT31;56792;50.644;17.984;2024-01-27T03:47:37;4.76;72.12
69589;SHT31;56792;50.644;17.984;2024-01-27T03:50:09;4.75;72.14
69589;SHT31;56792;50.644;17.984;2024-01-27T03:52:40;4.76;71.86
69589;SHT31;56792;50.644;17.984;2024-01-27T03:55:12;4.76;71.84
69589;SHT31;56792;50.644;17.984;2024-01-27T03:57:43;4.75;71.84
69589;SHT31;56792;50.644;17.984;2024-01-27T04:00:14;4.73;71.96
69589;SHT31;56792;50.644;17.984;2024-01-27T04:02:46;4.71;72.08
69589;SHT31;56792;50.644;17.984;2024-01-27T04:05:17;4.70;71.73
69589;SHT31;56792;50.644;17.984;2024-01-27T04:07:48;4.73;71.53
69589;SHT31;56792;50.644;17.984;2024-01-27T04:10:20;4.74;71.21
69589;SHT31;56792;50.644;17.984;2024-01-27T04:12:51;4.73;71.34
69589;SHT31;56792;50.644;17.984;2024-01-27T04:15:22;4.71;71.35
69589;SHT31;56792;50.644;17.984;2024-01-27T04:17:54;4.70;71.30
69589;SHT31;56792;50.644;17.984;2024-01-27T04:20:25;4.70;71.01
69589;SHT31;56792;50.644;17.984;2024-01-27T04:22:56;4.70;71.17
69589;SHT31;56792;50.644;17.984;2024-01-27T04:25:27;4.68;71.21
69589;SHT31;56792;50.644;17.984;2024-01-27T04:27:58;4.66;71.34
69589;SHT31;56792;50.644;17.984;2024-01-27T04:30:29;4.65;70.87
69589;SHT31;56792;50.644;17.984;2024-01-27T04:33:00;4.66;71.13
69589;SHT31;56792;50.644;17.984;2024-01-27T04:35:33;4.62;71.33
69589;SHT31;56792;50.644;17.984;2024-01-27T04:38:05;4.60;71.35
69589;SHT31;56792;50.644;17.984;2024-01-27T04:40:37;4.58;71.42
69589;SHT31;56792;50.644;17.984;2024-01-27T04:43:08;4.55;71.64
69589;SHT31;56792;50.644;17.984;2024-01-27T04:45:42;4.54;71.61
69589;SHT31;56792;50.644;17.984;2024-01-27T04:48:13;4.51;71.70
69589;SHT31;56792;50.644;17.984;2024-01-27T04:50:44;4.52;71.24
69589;SHT31;56792;50.644;17.984;2024-01-27T04:53:15;4.52;71.49
69589;SHT31;56792;50.644;17.984;2024-01-27T04:55:46;4.50;71.54
69589;SHT31;56792;50.644;17.984;2024-01-27T04:58:17;4.49;71.34
69589;SHT31;56792;50.644;17.984;2024-01-27T05:00:48;4.51;71.12
69589;SHT31;56792;50.644;17.984;2024-01-27T05:03:19;4.50;71.37
69589;SHT31;56792;50.644;17.984;2024-01-27T05:05:50;4.46;71.43
69589;SHT31;56792;50.644;17.984;2024-01-27T05:08:22;4.45;71.38
69589;SHT31;56792;50.644;17.984;2024-01-27T05:10:53;4.46;71.33
69589;SHT31;56792;50.644;17.984;2024-01-27T05:13:24;4.47;71.19
69589;SHT31;56792;50.644;17.984;2024-01-27T05:15:55;4.48;71.11
69589;SHT31;56792;50.644;17.984;2024-01-27T05:18:26;4.48;71.34
69589;SHT31;56792;50.644;17.984;2024-01-27T05:20:57;4.46;71.35
69589;SHT31;56792;50.644;17.984;2024-01-27T05:23:28;4.45;71.55
69589;SHT31;56792;50.644;17.984;2024-01-27T05:26:00;4.44;71.50
69589;SHT31;56792;50.644;17.984;2024-01-27T05:28:32;4.45;71.26
69589;SHT31;56792;50.644;17.984;2024-01-27T05:31:04;4.45;71.10
69589;SHT31;56792;50.644;17.984;2024-01-27T05:33:37;4.45;70.89
69589;SHT31;56792;50.644;17.984;2024-01-27T05:36:10;4.44;71.10
69589;SHT31;56792;50.644;17.984;2024-01-27T05:38:41;4.40;71.38
69589;SHT31;56792;50.644;17.984;2024-01-27T05:41:12;4.37;71.48
69589;SHT31;56792;50.644;17.984;2024-01-27T05:43:43;4.35;71.42
69589;SHT31;56792;50.644;17.984;2024-01-27T05:46:14;4.36;71.18
69589;SHT31;56792;50.644;17.984;2024-01-27T05:48:45;4.36;70.94
69589;SHT31;56792;50.644;17.984;2024-01-27T05:51:17;4.35;71.04
69589;SHT31;56792;50.644;17.984;2024-01-27T05:53:49;4.32;71.23
69589;SHT31;56792;50.644;17.984;2024-01-27T05:56:20;4.30;71.08
69589;SHT31;56792;50.644;17.984;2024-01-27T05:58:51;4.30;70.77
69589;SHT31;56792;50.644;17.984;2024-01-27T06:01:22;4.30;71.04
69589;SHT31;56792;50.644;17.984;2024-01-27T06:03:54;4.28;70.70
69589;SHT31;56792;50.644;17.984;2024-01-27T06:06:25;4.27;70.54
69589;SHT31;56792;50.644;17.984;2024-01-27T06:08:56;4.28;70.19
69589;SHT31;56792;50.644;17.984;2024-01-27T06:11:27;4.29;70.40
69589;SHT31;56792;50.644;17.984;2024-01-27T06:13:58;4.26;70.50
69589;SHT31;56792;50.644;17.984;2024-01-27T06:16:29;4.23;70.53
69589;SHT31;56792;50.644;17.984;2024-01-27T06:19:02;4.21;70.58
69589;SHT31;56792;50.644;17.984;2024-01-27T06:21:33;4.22;70.42
69589;SHT31;56792;50.644;17.984;2024-01-27T06:24:04;4.20;70.50
69589;SHT31;56792;50.644;17.984;2024-01-27T06:26:35;4.20;70.37
69589;SHT31;56792;50.644;17.984;2024-01-27T06:29:06;4.19;70.39
69589;SHT31;56792;50.644;17.984;2024-01-27T06:31:38;4.20;70.09
69589;SHT31;56792;50.644;17.984;2024-01-27T06:34:09;4.21;69.87
69589;SHT31;56792;50.644;17.984;2024-01-27T06:36:40;4.22;70.01
69589;SHT31;56792;50.644;17.984;2024-01-27T06:39:11;4.22;70.03
69589;SHT31;56792;50.644;17.984;2024-01-27T06:41:42;4.23;69.66
69589;SHT31;56792;50.644;17.984;2024-01-27T06:44:13;4.24;69.37
69589;SHT31;56792;50.644;17.984;2024-01-27T06:46:44;4.26;69.19
69589;SHT31;56792;50.644;17.984;2024-01-27T06:49:16;4.29;69.24
69589;SHT31;56792;50.644;17.984;2024-01-27T06:51:47;4.29;69.20
69589;SHT31;56792;50.644;17.984;2024-01-27T06:54:18;4.28;69.13
69589;SHT31;56792;50.644;17.984;2024-01-27T06:56:50;4.28;69.17
69589;SHT31;56792;50.644;17.984;2024-01-27T06:59:21;4.27;69.22
69589;SHT31;56792;50.644;17.984;2024-01-27T07:01:52;4.26;69.27
69589;SHT31;56792;50.644;17.984;2024-01-27T07:04:24;4.26;69.31
69589;SHT31;56792;50.644;17.984;2024-01-27T07:06:55;4.24;69.53
69589;SHT31;56792;50.644;17.984;2024-01-27T07:09:26;4.24;69.40
69589;SHT31;56792;50.644;17.984;2024-01-27T07:11:57;4.24;69.31
69589;SHT31;56792;50.644;17.984;2024-01-27T07:14:28;4.26;69.28
69589;SHT31;56792;50.644;17.984;2024-01-27T07:16:59;4.26;69.41
69589;SHT31;56792;50.644;17.984;2024-01-27T07:19:31;4.24;69.34
69589;SHT31;56792;50.644;17.984;2024-01-27T07:22:03;4.24;69.37
69589;SHT31;56792;50.644;17.984;2024-01-27T07:24:34;4.25;69.41
69589;SHT31;56792;50.644;17.984;2024-01-27T07:27:05;4.23;69.34
69589;SHT31;56792;50.644;17.984;2024-01-27T07:29:39;4.24;69.26
69589;SHT31;56792;50.644;17.984;2024-01-27T07:32:10;4.25;69.31
69589;SHT31;56792;50.644;17.984;2024-01-27T07:34:42;4.27;69.12
69589;SHT31;56792;50.644;17.984;2024-01-27T07:37:13;4.29;69.31
69589;SHT31;56792;50.644;17.984;2024-01-27T07:39:44;4.30;69.23
69589;SHT31;56792;50.644;17.984;2024-01-27T07:42:16;4.33;69.30
69589;SHT31;56792;50.644;17.984;2024-01-27T07:44:47;4.33;69.36
69589;SHT31;56792;50.644;17.984;2024-01-27T07:47:18;4.34;69.11
69589;SHT31;56792;50.644;17.984;2024-01-27T07:49:49;4.36;69.36
69589;SHT31;56792;50.644;17.984;2024-01-27T07:52:21;4.36;69.45
69589;SHT31;56792;50.644;17.984;2024-01-27T07:54:52;4.36;69.48
69589;SHT31;56792;50.644;17.984;2024-01-27T07:57:23;4.37;69.00
69589;SHT31;56792;50.644;17.984;2024-01-27T07:59:55;4.42;68.91
69589;SHT31;56792;50.644;17.984;2024-01-27T08:02:26;4.44;68.67
69589;SHT31;56792;50.644;17.984;2024-01-27T08:04:57;4.44;69.18
69589;SHT31;56792;50.644;17.984;2024-01-27T08:07:28;4.44;68.87
69589;SHT31;56792;50.644;17.984;2024-01-27T08:10:00;4.45;69.04
69589;SHT31;56792;50.644;17.984;2024-01-27T08:12:32;4.44;69.04
69589;SHT31;56792;50.644;17.984;2024-01-27T08:15:03;4.45;69.09
69589;SHT31;56792;50.644;17.984;2024-01-27T08:17:36;4.47;68.93
69589;SHT31;56792;50.644;17.984;2024-01-27T08:20:08;4.46;69.04
69589;SHT31;56792;50.644;17.984;2024-01-27T08:22:40;4.48;68.70
69589;SHT31;56792;50.644;17.984;2024-01-27T08:25:12;4.49;68.87
69589;SHT31;56792;50.644;17.984;2024-01-27T08:27:44;4.48;69.18
69589;SHT31;56792;50.644;17.984;2024-01-27T08:30:15;4.48;69.28
69589;SHT31;56792;50.644;17.984;2024-01-27T08:32:46;4.50;69.19
69589;SHT31;56792;50.644;17.984;2024-01-27T08:35:17;4.49;69.59
69589;SHT31;56792;50.644;17.984;2024-01-27T08:37:49;4.49;69.53
69589;SHT31;56792;50.644;17.984;2024-01-27T08:40:20;4.49;69.57
69589;SHT31;56792;50.644;17.984;2024-01-27T08:42:52;4.50;69.88
69589;SHT31;56792;50.644;17.984;2024-01-27T08:45:23;4.54;69.60
69589;SHT31;56792;50.644;17.984;2024-01-27T08:47:54;4.57;69.76
69589;SHT31;56792;50.644;17.984;2024-01-27T08:50:25;4.60;70.09
69589;SHT31;56792;50.644;17.984;2024-01-27T08:52:56;4.57;70.19
69589;SHT31;56792;50.644;17.984;2024-01-27T08:55:28;4.60;69.95
69589;SHT31;56792;50.644;17.984;2024-01-27T08:57:59;4.61;69.80
69589;SHT31;56792;50.644;17.984;2024-01-27T09:00:30;4.63;69.67
69589;SHT31;56792;50.644;17.984;2024-01-27T09:03:01;4.63;70.03
69589;SHT31;56792;50.644;17.984;2024-01-27T09:05:34;4.62;70.09
69589;SHT31;56792;50.644;17.984;2024-01-27T09:08:05;4.66;69.74
69589;SHT31;56792;50.644;17.984;2024-01-27T09:10:36;4.69;69.72
69589;SHT31;56792;50.644;17.984;2024-01-27T09:13:07;4.71;69.64
69589;SHT31;56792;50.644;17.984;2024-01-27T09:15:39;4.72;69.89
69589;SHT31;56792;50.644;17.984;2024-01-27T09:18:10;4.72;69.99
69589;SHT31;56792;50.644;17.984;2024-01-27T09:20:41;4.73;69.83
69589;SHT31;56792;50.644;17.984;2024-01-27T09:23:12;4.72;69.89
69589;SHT31;56792;50.644;17.984;2024-01-27T09:25:43;4.72;69.86
69589;SHT31;56792;50.644;17.984;2024-01-27T09:28:15;4.73;70.62
69589;SHT31;56792;50.644;17.984;2024-01-27T09:30:46;4.70;70.45
69589;SHT31;56792;50.644;17.984;2024-01-27T09:33:17;4.70;70.47
69589;SHT31;56792;50.644;17.984;2024-01-27T09:35:49;4.70;70.56
69589;SHT31;56792;50.644;17.984;2024-01-27T09:38:20;4.71;70.61
69589;SHT31;56792;50.644;17.984;2024-01-27T09:40:51;4.74;70.42
69589;SHT31;56792;50.644;17.984;2024-01-27T09:43:22;4.75;70.35
69589;SHT31;56792;50.644;17.984;2024-01-27T09:45:58;4.78;70.58
69589;SHT31;56792;50.644;17.984;2024-01-27T09:48:29;4.79;70.48
69589;SHT31;56792;50.644;17.984;2024-01-27T09:51:02;4.79;70.81
69589;SHT31;56792;50.644;17.984;2024-01-27T09:53:35;4.78;70.52
69589;SHT31;56792;50.644;17.984;2024-01-27T09:56:06;4.82;70.70
69589;SHT31;56792;50.644;17.984;2024-01-27T09:58:38;4.85;70.74
69589;SHT31;56792;50.644;17.984;2024-01-27T10:01:10;4.87;70.58
69589;SHT31;56792;50.644;17.984;2024-01-27T10:03:42;4.92;70.28
69589;SHT31;56792;50.644;17.984;2024-01-27T10:06:14;4.97;70.26
69589;SHT31;56792;50.644;17.984;2024-01-27T10:08:51;4.99;69.82
69589;SHT31;56792;50.644;17.984;2024-01-27T10:11:24;5.06;69.76
69589;SHT31;56792;50.644;17.984;2024-01-27T10:13:56;5.09;69.46
69589;SHT31;56792;50.644;17.984;2024-01-27T10:16:27;5.12;69.26
69589;SHT31;56792;50.644;17.984;2024-01-27T10:19:11;5.13;68.96
69589;SHT31;56792;50.644;17.984;2024-01-27T10:21:44;5.12;69.37
69589;SHT31;56792;50.644;17.984;2024-01-27T10:24:27;5.11;69.64
69589;SHT31;56792;50.644;17.984;2024-01-27T10:27:00;5.12;69.46
69589;SHT31;56792;50.644;17.984;2024-01-27T10:29:32;5.18;69.54
69589;SHT31;56792;50.644;17.984;2024-01-27T10:32:09;5.18;69.47
69589;SHT31;56792;50.644;17.984;2024-01-27T10:34:41;5.18;69.34
69589;SHT31;56792;50.644;17.984;2024-01-27T10:37:13;5.20;69.32
69589;SHT31;56792;50.644;17.984;2024-01-27T10:39:51;5.26;69.75
69589;SHT31;56792;50.644;17.984;2024-01-27T10:42:31;5.29;69.49
69589;SHT31;56792;50.644;17.984;2024-01-27T10:45:04;5.33;69.39
69589;SHT31;56792;50.644;17.984;2024-01-27T10:47:38;5.37;69.39
69589;SHT31;56792;50.644;17.984;2024-01-27T10:50:10;5.38;69.17
69589;SHT31;56792;50.644;17.984;2024-01-27T10:52:41;5.39;69.00
69589;SHT31;56792;50.644;17.984;2024-01-27T10:55:14;5.40;68.97
69589;SHT31;56792;50.644;17.984;2024-01-27T10:57:46;5.39;69.08
69589;SHT31;56792;50.644;17.984;2024-01-27T11:00:20;5.38;69.33
69589;SHT31;56792;50.644;17.984;2024-01-27T11:02:53;5.35;69.43
69589;SHT31;56792;50.644;17.984;2024-01-27T11:05:31;5.38;69.59
69589;SHT31;56792;50.644;17.984;2024-01-27T11:08:07;5.41;69.60
69589;SHT31;56792;50.644;17.984;2024-01-27T11:10:42;5.41;69.82
69589;SHT31;56792;50.644;17.984;2024-01-27T11:13:13;5.39;69.75
69589;SHT31;56792;50.644;17.984;2024-01-27T11:15:51;5.40;69.65
69589;SHT31;56792;50.644;17.984;2024-01-27T11:18:25;5.43;69.74
69589;SHT31;56792;50.644;17.984;2024-01-27T11:20:58;5.46;69.90
69589;SHT31;56792;50.644;17.984;2024-01-27T11:23:33;5.47;69.60
69589;SHT31;56792;50.644;17.984;2024-01-27T11:26:05;5.47;69.37
69589;SHT31;56792;50.644;17.984;2024-01-27T11:28:41;5.45;69.27
69589;SHT31;56792;50.644;17.984;2024-01-27T11:31:12;5.47;69.27
69589;SHT31;56792;50.644;17.984;2024-01-27T11:33:48;5.47;69.41
69589;SHT31;56792;50.644;17.984;2024-01-27T11:36:21;5.45;69.15
69589;SHT31;56792;50.644;17.984;2024-01-27T11:38:53;5.46;69.32
69589;SHT31;56792;50.644;17.984;2024-01-27T11:41:26;5.44;69.74
69589;SHT31;56792;50.644;17.984;2024-01-27T11:43:58;5.46;69.77
69589;SHT31;56792;50.644;17.984;2024-01-27T11:46:29;5.50;69.61
69589;SHT31;56792;50.644;17.984;2024-01-27T11:49:00;5.53;69.43
69589;SHT31;56792;50.644;17.984;2024-01-27T11:51:32;5.58;69.36
69589;SHT31;56792;50.644;17.984;2024-01-27T11:54:03;5.61;69.01
69589;SHT31;56792;50.644;17.984;2024-01-27T11:56:34;5.63;68.89
69589;SHT31;56792;50.644;17.984;2024-01-27T11:59:06;5.63;68.71
69589;SHT31;56792;50.644;17.984;2024-01-27T12:01:37;5.64;68.69
69589;SHT31;56792;50.644;17.984;2024-01-27T12:04:09;5.64;69.08
69589;SHT31;56792;50.644;17.984;2024-01-27T12:06:41;5.65;68.95
69589;SHT31;56792;50.644;17.984;2024-01-27T12:09:12;5.65;68.96
69589;SHT31;56792;50.644;17.984;2024-01-27T12:11:44;5.68;68.93
69589;SHT31;56792;50.644;17.984;2024-01-27T12:14:16;5.68;68.97
69589;SHT31;56792;50.644;17.984;2024-01-27T12:16:47;5.66;69.00
69589;SHT31;56792;50.644;17.984;2024-01-27T12:19:20;5.67;68.79
69589;SHT31;56792;50.644;17.984;2024-01-27T12:21:51;5.69;69.00
69589;SHT31;56792;50.644;17.984;2024-01-27T12:24:23;5.68;68.81
69589;SHT31;56792;50.644;17.984;2024-01-27T12:26:54;5.68;68.67
69589;SHT31;56792;50.644;17.984;2024-01-27T12:29:26;5.72;68.36
69589;SHT31;56792;50.644;17.984;2024-01-27T12:31:57;5.72;68.60
69589;SHT31;56792;50.644;17.984;2024-01-27T12:34:29;5.72;68.50
69589;SHT31;56792;50.644;17.984;2024-01-27T12:37:00;5.75;67.93
69589;SHT31;56792;50.644;17.984;2024-01-27T12:39:32;5.79;68.03
69589;SHT31;56792;50.644;17.984;2024-01-27T12:42:03;5.82;68.11
69589;SHT31;56792;50.644;17.984;2024-01-27T12:44:35;5.85;68.14
69589;SHT31;56792;50.644;17.984;2024-01-27T12:47:06;5.89;67.91
69589;SHT31;56792;50.644;17.984;2024-01-27T12:49:39;5.90;67.53
69589;SHT31;56792;50.644;17.984;2024-01-27T12:52:10;5.94;67.51
69589;SHT31;56792;50.644;17.984;2024-01-27T12:54:42;5.96;67.55
69589;SHT31;56792;50.644;17.984;2024-01-27T12:57:13;5.98;67.45
69589;SHT31;56792;50.644;17.984;2024-01-27T12:59:44;6.00;67.13
69589;SHT31;56792;50.644;17.984;2024-01-27T13:02:15;6.02;66.56
69589;SHT31;56792;50.644;17.984;2024-01-27T13:04:47;6.05;66.52
69589;SHT31;56792;50.644;17.984;2024-01-27T13:07:18;6.07;66.58
69589;SHT31;56792;50.644;17.984;2024-01-27T13:09:49;6.08;66.42
69589;SHT31;56792;50.644;17.984;2024-01-27T13:12:20;6.11;66.33
69589;SHT31;56792;50.644;17.984;2024-01-27T13:14:51;6.13;66.25
69589;SHT31;56792;50.644;17.984;2024-01-27T13:17:22;6.14;66.23
69589;SHT31;56792;50.644;17.984;2024-01-27T13:19:54;6.18;66.16
69589;SHT31;56792;50.644;17.984;2024-01-27T13:22:25;6.21;66.04
69589;SHT31;56792;50.644;17.984;2024-01-27T13:24:56;6.22;66.14
69589;SHT31;56792;50.644;17.984;2024-01-27T13:27:28;6.23;66.34
69589;SHT31;56792;50.644;17.984;2024-01-27T13:30:00;6.22;66.47
69589;SHT31;56792;50.644;17.984;2024-01-27T13:32:33;6.21;66.36
69589;SHT31;56792;50.644;17.984;2024-01-27T13:35:05;6.24;66.47
69589;SHT31;56792;50.644;17.984;2024-01-27T13:37:37;6.23;66.34
69589;SHT31;56792;50.644;17.984;2024-01-27T13:40:09;6.26;66.03
69589;SHT31;56792;50.644;17.984;2024-01-27T13:42:40;6.29;66.21
69589;SHT31;56792;50.644;17.984;2024-01-27T13:45:11;6.30;66.27
69589;SHT31;56792;50.644;17.984;2024-01-27T13:47:42;6.31;66.15
69589;SHT31;56792;50.644;17.984;2024-01-27T13:50:14;6.32;66.26
69589;SHT31;56792;50.644;17.984;2024-01-27T13:52:45;6.32;66.45
69589;SHT31;56792;50.644;17.984;2024-01-27T13:55:16;6.31;66.58
69589;SHT31;56792;50.644;17.984;2024-01-27T13:57:48;6.31;66.38
69589;SHT31;56792;50.644;17.984;2024-01-27T14:00:19;6.33;66.44
69589;SHT31;56792;50.644;17.984;2024-01-27T14:02:51;6.35;66.47
69589;SHT31;56792;50.644;17.984;2024-01-27T14:05:22;6.38;66.72
69589;SHT31;56792;50.644;17.984;2024-01-27T14:07:53;6.38;66.95
69589;SHT31;56792;50.644;17.984;2024-01-27T14:10:25;6.36;66.96
69589;SHT31;56792;50.644;17.984;2024-01-27T14:12:56;6.37;67.10
69589;SHT31;56792;50.644;17.984;2024-01-27T14:15:29;6.39;67.14
69589;SHT31;56792;50.644;17.984;2024-01-27T14:18:00;6.40;67.19
69589;SHT31;56792;50.644;17.984;2024-01-27T14:20:32;6.40;67.41
69589;SHT31;56792;50.644;17.984;2024-01-27T14:23:04;6.41;67.18
69589;SHT31;56792;50.644;17.984;2024-01-27T14:25:35;6.42;67.30
69589;SHT31;56792;50.644;17.984;2024-01-27T14:28:06;6.43;67.41
69589;SHT31;56792;50.644;17.984;2024-01-27T14:30:38;6.41;67.31
69589;SHT31;56792;50.644;17.984;2024-01-27T14:33:10;6.41;67.36
69589;SHT31;56792;50.644;17.984;2024-01-27T14:35:47;6.40;67.24
69589;SHT31;56792;50.644;17.984;2024-01-27T14:38:18;6.40;67.49
69589;SHT31;56792;50.644;17.984;2024-01-27T14:40:49;6.36;67.73
69589;SHT31;56792;50.644;17.984;2024-01-27T14:43:20;6.35;67.56
69589;SHT31;56792;50.644;17.984;2024-01-27T14:45:53;6.36;67.68
69589;SHT31;56792;50.644;17.984;2024-01-27T14:48:24;6.35;67.82
69589;SHT31;56792;50.644;17.984;2024-01-27T14:50:55;6.34;67.95
69589;SHT31;56792;50.644;17.984;2024-01-27T14:53:26;6.32;68.17
69589;SHT31;56792;50.644;17.984;2024-01-27T14:55:59;6.29;68.23
69589;SHT31;56792;50.644;17.984;2024-01-27T14:58:30;6.27;68.23
69589;SHT31;56792;50.644;17.984;2024-01-27T15:01:01;6.26;68.18
69589;SHT31;56792;50.644;17.984;2024-01-27T15:03:33;6.26;68.21
69589;SHT31;56792;50.644;17.984;2024-01-27T15:06:04;6.25;68.18
69589;SHT31;56792;50.644;17.984;2024-01-27T15:08:36;6.25;68.28
69589;SHT31;56792;50.644;17.984;2024-01-27T15:11:08;6.25;68.20
69589;SHT31;56792;50.644;17.984;2024-01-27T15:13:39;6.28;68.13
69589;SHT31;56792;50.644;17.984;2024-01-27T15:16:10;6.26;68.07
69589;SHT31;56792;50.644;17.984;2024-01-27T15:18:41;6.25;68.15
69589;SHT31;56792;50.644;17.984;2024-01-27T15:21:13;6.24;68.16
69589;SHT31;56792;50.644;17.984;2024-01-27T15:23:44;6.20;68.18
69589;SHT31;56792;50.644;17.984;2024-01-27T15:26:15;6.22;67.87
69589;SHT31;56792;50.644;17.984;2024-01-27T15:28:46;6.22;67.85
69589;SHT31;56792;50.644;17.984;2024-01-27T15:31:18;6.19;67.83
69589;SHT31;56792;50.644;17.984;2024-01-27T15:33:49;6.16;67.77
69589;SHT31;56792;50.644;17.984;2024-01-27T15:36:20;6.14;67.93
69589;SHT31;56792;50.644;17.984;2024-01-27T15:38:51;6.09;68.11
69589;SHT31;56792;50.644;17.984;2024-01-27T15:41:22;6.07;67.92
69589;SHT31;56792;50.644;17.984;2024-01-27T15:43:53;6.06;68.07
69589;SHT31;56792;50.644;17.984;2024-01-27T15:46:25;5.99;68.31
69589;SHT31;56792;50.644;17.984;2024-01-27T15:48:57;5.96;68.25
69589;SHT31;56792;50.644;17.984;2024-01-27T15:51:28;5.96;68.15
69589;SHT31;56792;50.644;17.984;2024-01-27T15:53:59;5.95;68.30
69589;SHT31;56792;50.644;17.984;2024-01-27T15:56:30;5.93;68.39